createdAt,value
2024-05-09T00:02:15.695Z,37.20
2024-05-09T00:07:20.584Z,39.22
2024-05-09T00:12:25.584Z,37.67
2024-05-09T00:17:31.000Z,44.72
2024-05-09T00:22:35.922Z,40.72
2024-05-09T00:27:41.754Z,43.10
2024-05-09T00:32:46.671Z,42.55
2024-05-09T00:37:51.574Z,43.85
2024-05-09T00:42:56.469Z,42.00
2024-05-09T00:48:06.470Z,47.75
2024-05-09T00:53:17.092Z,47.47
2024-05-09T00:58:25.779Z,45.28
2024-05-09T01:03:30.939Z,47.15
2024-05-09T01:08:36.074Z,48.25
2024-05-09T01:13:40.949Z,46.85
2024-05-09T01:18:46.063Z,48.33
2024-05-09T01:23:51.000Z,42.88
2024-05-09T01:28:55.875Z,46.17
2024-05-09T01:34:00.878Z,47.20
2024-05-09T01:39:05.881Z,47.67
2024-05-09T01:44:10.934Z,46.55
2024-05-09T01:49:15.852Z,42.45
2024-05-09T01:54:20.717Z,41.47
2024-05-09T01:59:25.773Z,41.88
2024-05-09T02:04:30.858Z,39.33
2024-05-09T02:09:35.740Z,39.33
2024-05-09T02:14:40.538Z,38.05
2024-05-09T02:19:45.353Z,33.35
2024-05-09T02:24:50.286Z,34.03
2024-05-09T02:29:55.091Z,32.40
2024-05-09T02:34:59.953Z,32.47
2024-05-09T02:40:07.105Z,37.00
2024-05-09T02:45:13.966Z,34.75
2024-05-09T02:50:26.614Z,38.17
2024-05-09T02:55:38.983Z,37.97
2024-05-09T03:00:43.897Z,39.60
2024-05-09T03:05:48.879Z,38.47
2024-05-09T03:10:53.756Z,38.60
2024-05-09T03:15:58.547Z,41.42
2024-05-09T03:21:03.457Z,44.92
2024-05-09T03:26:13.817Z,37.60
2024-05-09T03:31:21.774Z,42.88
2024-05-09T03:36:26.805Z,39.92
2024-05-09T03:41:31.700Z,43.38
2024-05-09T03:46:41.265Z,38.17
2024-05-09T03:51:46.795Z,38.38
2024-05-09T03:56:51.601Z,40.88
2024-05-09T04:01:56.594Z,37.42
2024-05-09T04:07:01.467Z,35.40
2024-05-09T04:12:06.395Z,31.05
2024-05-09T04:17:11.246Z,37.60
2024-05-09T04:22:16.276Z,34.80
2024-05-09T04:27:21.091Z,31.63
2024-05-09T04:32:26.010Z,32.67
2024-05-09T04:37:31.038Z,31.60
2024-05-09T04:42:35.849Z,34.42
2024-05-09T04:47:40.877Z,23.50
2024-05-09T04:52:45.927Z,30.15
2024-05-09T04:57:50.716Z,26.52
2024-05-09T05:02:55.627Z,29.10
2024-05-09T05:08:00.718Z,27.63
2024-05-09T05:13:24.764Z,24.63
2024-05-09T05:18:30.850Z,26.30
2024-05-09T05:23:35.780Z,23.25
2024-05-09T05:28:40.666Z,21.52
2024-05-09T05:33:45.576Z,21.90
2024-05-09T05:38:50.696Z,21.77
2024-05-09T05:43:55.564Z,19.95
2024-05-09T05:49:00.513Z,18.52
2024-05-09T05:54:05.358Z,17.63
2024-05-09T05:59:11.984Z,17.50
2024-05-09T06:04:18.202Z,19.38
2024-05-09T06:09:23.081Z,15.80
2024-05-09T06:14:28.105Z,16.80
2024-05-09T06:19:33.210Z,20.55
2024-05-09T06:24:38.190Z,20.08
2024-05-09T06:29:43.202Z,16.63
2024-05-09T06:34:49.859Z,12.65
2024-05-09T06:39:54.660Z,15.38
2024-05-09T06:44:59.463Z,16.13
2024-05-09T06:50:08.217Z,14.68
2024-05-09T06:55:15.238Z,13.32
2024-05-09T07:00:27.485Z,14.38
2024-05-09T07:05:40.511Z,12.73
2024-05-09T07:10:45.503Z,13.75
2024-05-09T07:15:50.459Z,13.70
2024-05-09T07:20:55.476Z,14.60
2024-05-09T07:26:00.476Z,12.02
2024-05-09T07:31:05.308Z,11.15
2024-05-09T07:36:10.250Z,9.32
2024-05-09T07:41:15.108Z,14.02
2024-05-09T07:56:35.264Z,9.20
2024-05-09T08:01:40.299Z,11.50
2024-05-09T08:06:45.234Z,12.30
2024-05-09T08:11:50.092Z,11.25
2024-05-09T08:16:54.953Z,11.40
2024-05-09T08:22:01.771Z,145.23
2024-05-09T08:27:06.693Z,7.73
2024-05-09T08:32:13.026Z,8.00
2024-05-09T08:37:22.397Z,10.07
2024-05-09T08:42:30.356Z,7.30
2024-05-09T08:47:35.245Z,12.07
2024-05-09T08:52:40.253Z,9.05
2024-05-09T08:57:45.181Z,11.73
2024-05-09T09:02:52.579Z,7.07
2024-05-09T09:07:57.415Z,8.07
2024-05-09T09:13:05.349Z,6.45
2024-05-09T09:18:12.360Z,6.72
2024-05-09T09:23:19.784Z,3.87
2024-05-09T09:28:26.162Z,3.20
2024-05-09T09:33:32.198Z,23.98
2024-05-09T09:38:40.004Z,5.35
2024-05-09T09:43:45.565Z,11.75
2024-05-09T09:48:50.586Z,6.22
2024-05-09T09:53:55.882Z,6.93
2024-05-09T09:59:01.565Z,6.90
2024-05-09T10:04:06.756Z,7.57
2024-05-09T10:09:18.098Z,6.78
2024-05-09T10:14:25.696Z,14.40
2024-05-09T10:24:55.445Z,14.00
2024-05-09T10:30:06.871Z,13.00
2024-05-09T10:35:19.418Z,7.00
2024-05-09T10:40:29.398Z,4.50
2024-05-09T10:45:38.393Z,7.00
2024-05-09T10:50:46.990Z,9.27
2024-05-09T10:56:01.315Z,4.85
2024-05-09T11:01:07.351Z,5.00
2024-05-09T11:06:14.340Z,4.07
2024-05-09T11:11:20.134Z,5.03
2024-05-09T11:16:25.048Z,3.67
2024-05-09T11:21:29.968Z,4.40
2024-05-09T11:26:35.599Z,4.00
2024-05-09T11:31:50.552Z,3.60
2024-05-09T11:36:55.441Z,3.40
2024-05-09T11:42:00.843Z,4.45
2024-05-09T11:47:07.122Z,5.65
2024-05-09T11:52:12.051Z,7.22
2024-05-09T11:57:16.849Z,4.30
2024-05-09T12:02:21.926Z,6.68
2024-05-09T12:07:27.032Z,6.90
2024-05-09T12:12:32.958Z,6.25
2024-05-09T12:17:39.080Z,11.60
2024-05-09T12:22:43.903Z,7.28
2024-05-09T12:27:48.896Z,4.32
2024-05-09T12:32:53.858Z,2.72
2024-05-09T12:37:58.893Z,3.60
2024-05-09T12:43:03.704Z,6.68
2024-05-09T12:48:12.171Z,4.60
2024-05-09T12:53:17.700Z,4.18
2024-05-09T12:58:22.956Z,5.75
2024-05-09T13:03:28.006Z,5.97
2024-05-09T13:08:32.863Z,4.88
2024-05-09T13:13:37.702Z,4.40
2024-05-09T13:18:44.126Z,4.40
2024-05-09T13:23:49.036Z,6.75
2024-05-09T13:28:53.820Z,4.78
2024-05-09T13:33:58.669Z,6.82
2024-05-09T13:39:03.883Z,5.47
2024-05-09T13:44:09.710Z,4.50
2024-05-09T13:49:17.024Z,5.00
2024-05-09T13:54:22.782Z,7.13
2024-05-09T13:59:27.838Z,5.70
2024-05-09T14:04:32.762Z,3.85
2024-05-09T14:09:37.714Z,4.07
2024-05-09T14:14:42.602Z,2.78
2024-05-09T14:19:47.445Z,3.28
2024-05-09T14:24:52.479Z,4.45
2024-05-09T14:29:57.262Z,4.93
2024-05-09T14:35:02.081Z,3.72
2024-05-09T14:40:09.527Z,3.53
2024-05-09T14:45:19.454Z,4.18
2024-05-09T14:50:34.404Z,5.40
2024-05-09T14:55:43.752Z,4.25
2024-05-09T15:00:51.335Z,3.10
2024-05-09T15:05:57.523Z,5.57
2024-05-09T15:11:02.390Z,3.90
2024-05-09T15:16:07.965Z,20.27
2024-05-09T15:21:12.808Z,11.90
2024-05-09T15:26:18.153Z,5.95
2024-05-09T15:31:23.053Z,4.03
2024-05-09T15:36:27.990Z,3.95
2024-05-09T15:41:32.766Z,5.97
2024-05-09T15:46:37.965Z,6.28
2024-05-09T15:51:42.897Z,12.27
2024-05-09T15:56:49.248Z,5.88
2024-05-09T16:01:54.411Z,4.57
2024-05-09T16:06:59.390Z,4.88
2024-05-09T16:12:04.228Z,4.70
2024-05-09T16:17:09.174Z,5.85
2024-05-09T16:22:14.108Z,10.48
2024-05-09T16:27:19.157Z,3.90
2024-05-09T16:32:24.061Z,8.40
2024-05-09T16:37:29.780Z,5.68
2024-05-09T16:42:35.322Z,3.33
2024-05-09T16:47:40.251Z,5.15
2024-05-09T16:52:45.287Z,3.70
2024-05-09T16:57:53.395Z,5.95
2024-05-09T17:02:58.306Z,4.70
2024-05-09T17:08:03.367Z,4.85
2024-05-09T17:13:08.524Z,4.97
2024-05-09T17:18:13.434Z,7.57
2024-05-09T17:23:21.386Z,6.15
2024-05-09T17:28:26.508Z,5.05
2024-05-09T17:33:31.903Z,4.40
2024-05-09T17:38:36.974Z,5.97
2024-05-09T17:43:41.791Z,6.63
2024-05-09T17:48:46.752Z,7.35
2024-05-09T17:53:51.606Z,9.70
2024-05-09T17:58:56.650Z,6.03
2024-05-09T18:04:01.626Z,7.22
2024-05-09T18:09:06.888Z,3.92
2024-05-09T18:14:11.683Z,6.68
2024-05-09T18:19:16.639Z,6.40
2024-05-09T18:24:22.222Z,4.85
2024-05-09T18:29:27.045Z,4.85
2024-05-09T18:34:33.153Z,4.43
2024-05-09T18:39:38.209Z,3.85
2024-05-09T18:44:44.946Z,3.60
2024-05-09T18:49:50.690Z,4.13
2024-05-09T18:54:57.904Z,4.50
2024-05-09T19:00:04.183Z,4.35
2024-05-09T19:10:22.491Z,6.75
2024-05-09T19:15:30.965Z,3.10
2024-05-09T19:20:37.788Z,6.43
2024-05-09T19:25:45.492Z,5.20
2024-05-09T19:30:50.566Z,6.47
2024-05-09T19:35:55.379Z,4.95
2024-05-09T19:41:00.366Z,5.72
2024-05-09T19:46:05.753Z,6.43
2024-05-09T19:51:10.640Z,7.07
2024-05-09T19:56:16.648Z,5.97
2024-05-09T20:01:21.544Z,6.57
2024-05-09T20:06:28.179Z,3.70
2024-05-09T20:11:34.061Z,6.50
2024-05-09T20:16:43.987Z,7.28
2024-05-09T20:21:49.335Z,9.70
2024-05-09T20:26:55.440Z,5.75
2024-05-09T20:32:00.914Z,8.80
2024-05-09T20:37:09.224Z,6.47
2024-05-09T20:42:14.884Z,7.00
2024-05-09T20:47:21.000Z,8.25
2024-05-09T20:52:25.904Z,5.60
2024-05-09T20:57:32.403Z,6.25
2024-05-09T21:02:38.621Z,7.82
2024-05-09T21:07:44.518Z,7.93
2024-05-09T21:12:49.631Z,7.40
2024-05-09T21:17:55.724Z,7.32
2024-05-09T21:23:01.282Z,6.93
2024-05-09T21:28:06.775Z,6.60
2024-05-09T21:33:15.068Z,7.53
2024-05-09T21:38:20.284Z,7.97
2024-05-09T21:43:26.842Z,6.00
2024-05-09T21:48:31.798Z,6.72
2024-05-09T21:53:37.957Z,7.15
2024-05-09T21:58:44.128Z,8.65
2024-05-09T22:03:50.327Z,8.80
2024-05-09T22:08:55.296Z,7.10
2024-05-09T22:14:00.090Z,6.50
2024-05-09T22:19:05.184Z,6.43
2024-05-09T22:24:10.609Z,5.30
2024-05-09T22:29:15.443Z,7.13
2024-05-09T22:34:20.502Z,6.22
2024-05-09T22:39:25.813Z,6.03
2024-05-09T22:44:30.630Z,7.45
2024-05-09T22:49:35.472Z,5.40
2024-05-09T22:54:40.305Z,6.53
2024-05-09T22:59:45.080Z,8.60
2024-05-09T23:04:50.125Z,7.30
2024-05-09T23:09:55.036Z,6.93
2024-05-09T23:15:00.030Z,5.88
2024-05-09T23:20:06.876Z,11.05
2024-05-09T23:25:14.575Z,7.07
2024-05-09T23:30:29.149Z,6.65
2024-05-09T23:35:42.149Z,7.70
2024-05-09T23:40:47.016Z,6.85
2024-05-09T23:45:51.823Z,8.73
2024-05-09T23:50:56.628Z,8.52
2024-05-09T23:56:01.422Z,8.45
